Time;durP1;ratioP1;P1;durP2;ratioP2;P2;SDS_P1;SDS_P2;PMS_P1;PMS_P2;Temp;Humidity;BMP_temperature;BMP_pressure;BME280_temperature;BME280_humidity;BME280_pressure;Samples;Min_cycle;Max_cycle;Signal;HPM_P1;HPM_P2
2022/10/18 04:01:00;;;;;;;7.37;5.67;;;13.90;99.90;;;;;;6205212;22;21058;-68
2022/10/18 04:03:27;;;;;;;7.10;5.67;;;13.90;99.90;;;;;;6240861;23;20510;-68
2022/10/18 04:05:54;;;;;;;10.40;6.40;;;13.90;99.90;;;;;;6240356;23;20482;-67
2022/10/18 04:08:20;;;;;;;6.23;4.87;;;13.90;99.90;;;;;;6241198;23;20418;-68
2022/10/18 04:10:47;;;;;;;11.80;7.27;;;13.80;99.90;;;;;;6241440;22;20438;-68
2022/10/18 04:13:14;;;;;;;4.23;3.80;;;13.80;99.90;;;;;;6241011;23;20429;-68
2022/10/18 04:15:41;;;;;;;5.83;5.37;;;13.80;99.90;;;;;;6242361;23;20419;-68
2022/10/18 04:18:09;;;;;;;9.17;4.80;;;13.80;99.90;;;;;;6241413;23;20429;-68
2022/10/18 04:20:35;;;;;;;6.90;5.17;;;13.70;99.90;;;;;;6241339;22;20450;-68
2022/10/18 04:23:02;;;;;;;5.67;4.97;;;13.70;99.90;;;;;;6241035;23;20446;-68
2022/10/18 04:25:29;;;;;;;5.87;5.33;;;13.70;99.90;;;;;;6214085;23;20442;-68
2022/10/18 04:27:56;;;;;;;6.20;5.53;;;13.70;99.90;;;;;;6242052;23;20427;-68
2022/10/18 04:30:23;;;;;;;7.37;5.33;;;13.60;99.90;;;;;;6241850;22;20423;-69
2022/10/18 04:32:49;;;;;;;6.13;3.10;;;13.70;99.90;;;;;;6241366;23;20422;-68
2022/10/18 04:35:18;;;;;;;6.87;4.67;;;13.60;99.90;;;;;;6241474;23;20801;-68
2022/10/18 04:37:45;;;;;;;8.87;5.30;;;13.60;99.90;;;;;;6241276;23;20450;-68
2022/10/18 04:40:12;;;;;;;8.70;6.20;;;13.60;99.90;;;;;;6241226;22;20428;-69
2022/10/18 04:42:39;;;;;;;6.40;5.27;;;13.60;99.90;;;;;;6240849;23;20935;-69
2022/10/18 04:45:07;;;;;;;12.67;6.33;;;13.60;99.90;;;;;;6242073;23;20553;-68
2022/10/18 04:47:33;;;;;;;7.83;6.03;;;13.50;99.90;;;;;;6241123;23;20426;-68
2022/10/18 04:50:00;;;;;;;9.67;5.80;;;13.50;99.90;;;;;;6241555;23;21162;-69
2022/10/18 04:52:28;;;;;;;8.00;5.90;;;13.50;99.90;;;;;;6240246;22;20539;-68
2022/10/18 04:54:55;;;;;;;7.03;5.80;;;13.50;99.90;;;;;;6240476;23;20464;-68
2022/10/18 04:57:21;;;;;;;9.87;5.77;;;13.50;99.90;;;;;;6241074;23;20422;-69
2022/10/18 04:59:48;;;;;;;15.53;6.80;;;13.50;99.90;;;;;;6239732;23;20423;-68
2022/10/18 05:02:15;;;;;;;9.20;6.47;;;13.50;99.90;;;;;;6239486;22;20534;-67
2022/10/18 05:04:41;;;;;;;7.60;4.27;;;13.60;99.90;;;;;;6240383;23;20446;-69
2022/10/18 05:07:08;;;;;;;5.97;5.37;;;13.60;99.90;;;;;;6242159;23;20722;-69
2022/10/18 05:09:36;;;;;;;7.13;5.40;;;13.60;99.90;;;;;;6243745;23;20435;-66
2022/10/18 05:12:03;;;;;;;7.93;6.60;;;13.50;99.90;;;;;;6242827;22;20441;-68
2022/10/18 05:14:30;;;;;;;5.10;4.60;;;13.50;99.90;;;;;;6242182;23;20767;-68
2022/10/18 05:16:56;;;;;;;16.03;5.90;;;13.50;99.90;;;;;;6242624;23;20433;-68
2022/10/18 05:19:23;;;;;;;8.90;5.67;;;13.50;99.90;;;;;;6243538;23;20433;-68
2022/10/18 05:21:50;;;;;;;5.90;5.10;;;13.40;99.90;;;;;;6242194;22;20745;-67
2022/10/18 05:24:16;;;;;;;5.33;4.60;;;13.40;99.90;;;;;;6242226;23;20446;-69
2022/10/18 05:26:44;;;;;;;8.00;5.60;;;13.40;99.90;;;;;;6243625;23;20422;-69
2022/10/18 05:29:11;;;;;;;7.40;6.23;;;13.40;99.90;;;;;;6243666;23;20540;-69
2022/10/18 05:31:38;;;;;;;8.00;5.20;;;13.40;99.90;;;;;;6244280;22;20442;-69
2022/10/18 05:34:05;;;;;;;6.03;5.50;;;13.40;99.90;;;;;;6245616;23;20733;-69
2022/10/18 05:36:31;;;;;;;7.90;5.97;;;13.40;99.90;;;;;;6250558;23;20422;-69
2022/10/18 05:38:58;;;;;;;5.40;4.90;;;13.40;99.90;;;;;;6251351;23;20422;-68
2022/10/18 05:41:25;;;;;;;10.97;4.90;;;13.40;99.90;;;;;;6247729;22;20714;-69
2022/10/18 05:43:53;;;;;;;18.70;4.60;;;13.40;99.90;;;;;;6245251;23;20750;-70
2022/10/18 05:46:20;;;;;;;6.40;5.80;;;13.40;99.90;;;;;;6244153;23;20452;-69
2022/10/18 05:48:50;;;;;;;6.87;5.90;;;13.40;99.90;;;;;;6244170;23;20426;-68
2022/10/18 05:51:17;;;;;;;7.30;4.63;;;13.40;99.90;;;;;;6242863;22;20569;-69
2022/10/18 05:53:43;;;;;;;7.27;4.83;;;13.30;99.90;;;;;;6240688;23;20426;-69
2022/10/18 05:56:11;;;;;;;13.80;6.20;;;13.40;99.90;;;;;;6241425;23;20418;-67
2022/10/18 05:58:38;;;;;;;8.10;6.23;;;13.30;99.90;;;;;;6241335;23;20426;-69
2022/10/18 06:01:07;;;;;;;8.27;6.47;;;13.30;99.90;;;;;;6242104;22;20463;-69
2022/10/18 06:03:34;;;;;;;7.10;5.00;;;13.30;99.90;;;;;;6243314;23;20429;-70
2022/10/18 06:06:01;;;;;;;14.67;6.57;;;13.30;99.90;;;;;;6242417;23;20446;-69
2022/10/18 06:08:28;;;;;;;10.63;6.30;;;13.30;99.90;;;;;;6243569;23;20423;-69
2022/10/18 06:10:55;;;;;;;7.20;5.70;;;13.30;99.90;;;;;;6241382;22;20765;-70
2022/10/18 06:13:22;;;;;;;6.47;5.80;;;13.40;99.90;;;;;;6243004;23;20433;-69
2022/10/18 06:15:48;;;;;;;10.60;6.30;;;13.30;99.90;;;;;;6242470;23;20777;-67
2022/10/18 06:18:16;;;;;;;7.43;5.63;;;13.30;99.90;;;;;;6242417;23;20438;-69
2022/10/18 06:20:43;;;;;;;12.10;6.50;;;13.40;99.90;;;;;;6242162;22;20459;-68
2022/10/18 06:23:10;;;;;;;6.87;6.17;;;13.40;99.90;;;;;;6242578;23;20423;-68
2022/10/18 06:25:36;;;;;;;16.43;6.40;;;13.40;99.90;;;;;;6241832;23;20442;-66
2022/10/18 06:28:04;;;;;;;7.27;6.00;;;13.40;99.90;;;;;;6240870;23;20449;-68
2022/10/18 06:30:32;;;;;;;16.60;7.83;;;13.40;99.90;;;;;;6239295;22;20445;-69
2022/10/18 06:32:59;;;;;;;11.60;5.87;;;13.40;99.90;;;;;;6240022;23;20427;-68
2022/10/18 06:35:27;;;;;;;11.83;5.17;;;13.40;99.90;;;;;;6239669;23;20529;-69
2022/10/18 06:37:54;;;;;;;17.53;7.00;;;13.40;99.90;;;;;;6241226;23;20788;-69
2022/10/18 06:40:21;;;;;;;7.03;5.57;;;13.40;99.90;;;;;;6235752;22;20427;-70
2022/10/18 06:42:48;;;;;;;4.80;3.87;;;13.50;99.90;;;;;;6236097;23;20423;-68
2022/10/18 06:45:17;;;;;;;9.50;5.73;;;13.50;99.90;;;;;;6236560;23;20454;-68
2022/10/18 06:47:43;;;;;;;7.47;5.77;;;13.50;99.90;;;;;;6237628;23;20530;-67
2022/10/18 06:50:11;;;;;;;6.07;5.67;;;13.50;99.90;;;;;;6237730;23;20423;-69
2022/10/18 06:52:40;;;;;;;8.23;4.97;;;13.50;99.90;;;;;;6236620;23;21031;-69
2022/10/18 06:55:08;;;;;;;7.23;5.93;;;13.50;99.90;;;;;;6237082;23;20424;-68
2022/10/18 06:57:34;;;;;;;8.23;6.10;;;13.50;99.90;;;;;;6236071;23;20442;-68
2022/10/18 07:00:03;;;;;;;5.03;4.63;;;13.60;99.90;;;;;;6237211;23;20913;-69
2022/10/18 07:02:29;;;;;;;14.40;8.60;;;13.60;99.90;;;;;;6236108;22;20487;-69
2022/10/18 07:04:56;;;;;;;11.73;5.40;;;13.60;99.90;;;;;;6237155;23;20460;-69
2022/10/18 07:07:23;;;;;;;6.83;5.87;;;13.70;99.90;;;;;;6237150;23;20430;-69
2022/10/18 07:09:51;;;;;;;7.13;5.67;;;13.70;99.90;;;;;;6237150;23;20430;-69
2022/10/18 07:12:17;;;;;;;7.23;5.93;;;13.70;99.90;;;;;;6241322;22;20772;-69
2022/10/18 07:14:45;;;;;;;6.77;5.60;;;13.80;99.90;;;;;;6242417;23;20419;-70
2022/10/18 07:17:12;;;;;;;9.50;7.87;;;13.80;99.90;;;;;;6242910;23;20453;-69
2022/10/18 07:19:39;;;;;;;8.90;6.50;;;13.80;99.90;;;;;;6241326;23;20465;-68
2022/10/18 07:22:05;;;;;;;8.80;7.30;;;13.90;99.90;;;;;;6240660;22;20465;-69
2022/10/18 07:24:32;;;;;;;8.27;6.27;;;13.90;99.90;;;;;;6242095;23;20422;-69
2022/10/18 07:27:00;;;;;;;12.83;5.63;;;13.90;99.90;;;;;;6242416;23;20442;-68
2022/10/18 07:29:27;;;;;;;10.30;7.20;;;13.90;99.90;;;;;;6241958;23;20430;-68
2022/10/18 07:31:53;;;;;;;7.97;5.47;;;14.00;99.90;;;;;;6241273;22;20766;-69
2022/10/18 07:34:20;;;;;;;6.70;5.20;;;14.00;99.90;;;;;;6242171;23;20446;-70
2022/10/18 07:36:47;;;;;;;9.03;6.90;;;14.10;99.90;;;;;;6241335;23;20447;-69
2022/10/18 07:39:13;;;;;;;7.83;6.30;;;14.10;99.90;;;;;;6242103;23;20457;-69
2022/10/18 07:41:40;;;;;;;6.70;5.40;;;14.10;99.90;;;;;;6239821;22;20453;-69
2022/10/18 07:44:08;;;;;;;9.77;5.80;;;14.10;99.90;;;;;;6240478;23;20423;-69
2022/10/18 07:46:35;;;;;;;17.67;5.77;;;14.20;99.90;;;;;;6241688;23;20485;-70
2022/10/18 07:49:02;;;;;;;8.00;5.43;;;14.20;99.90;;;;;;6250608;23;20459;-70
2022/10/18 07:51:31;;;;;;;8.83;7.23;;;14.20;99.90;;;;;;6241156;22;20440;-70
2022/10/18 07:53:58;;;;;;;13.93;7.20;;;14.20;99.90;;;;;;6240431;23;20966;-69
2022/10/18 07:56:25;;;;;;;8.37;5.70;;;14.30;99.90;;;;;;6240554;23;20477;-69
2022/10/18 07:58:53;;;;;;;8.70;5.10;;;14.40;99.90;;;;;;6241401;23;20423;-69
2022/10/18 08:01:23;;;;;;;13.57;7.17;;;14.40;99.90;;;;;;6240516;22;20455;-68
2022/10/18 08:03:50;;;;;;;9.30;6.47;;;14.40;99.90;;;;;;6241217;23;20852;-68
2022/10/18 08:06:18;;;;;;;10.47;7.53;;;14.40;99.90;;;;;;6241161;23;20916;-70
2022/10/18 08:08:45;;;;;;;11.13;6.97;;;14.40;99.90;;;;;;6241718;23;20458;-69
2022/10/18 08:11:14;;;;;;;10.53;7.00;;;14.50;99.90;;;;;;6240934;22;20442;-67
2022/10/18 08:13:41;;;;;;;15.13;6.90;;;14.60;99.90;;;;;;6242191;23;20430;-69
2022/10/18 08:16:09;;;;;;;9.13;6.77;;;14.60;99.90;;;;;;6241027;23;21100;-68
2022/10/18 08:18:38;;;;;;;9.60;6.43;;;14.70;99.90;;;;;;6238142;23;20909;-68
2022/10/18 08:21:07;;;;;;;8.27;6.07;;;14.70;99.90;;;;;;6239665;22;20613;-68
2022/10/18 08:23:34;;;;;;;9.37;7.37;;;14.70;99.90;;;;;;6240491;23;20497;-69
2022/10/18 08:26:02;;;;;;;10.20;5.57;;;14.80;99.90;;;;;;6240773;23;20447;-69
2022/10/18 08:28:29;;;;;;;8.90;5.80;;;14.80;99.90;;;;;;6240931;23;20930;-68
2022/10/18 08:30:55;;;;;;;10.97;5.47;;;14.80;99.90;;;;;;6240142;22;20536;-67
2022/10/18 08:33:22;;;;;;;6.53;5.83;;;14.90;99.90;;;;;;6240237;23;20408;-69
2022/10/18 08:35:56;;;;;;;11.03;5.90;;;15.00;99.90;;;;;;6238969;23;20450;-68
2022/10/18 08:38:23;;;;;;;11.13;5.57;;;15.00;99.90;;;;;;6240545;23;20412;-67
2022/10/18 08:40:50;;;;;;;10.43;6.37;;;15.10;99.90;;;;;;6241358;22;20441;-68
2022/10/18 08:43:25;;;;;;;9.10;6.43;;;15.10;99.90;;;;;;6242936;23;20421;-68
2022/10/18 08:45:54;;;;;;;5.60;5.07;;;15.20;99.90;;;;;;6239150;23;20960;-68
2022/10/18 08:48:27;;;;;;;9.70;6.53;;;15.20;99.90;;;;;;6240427;23;20435;-66
2022/10/18 08:50:57;;;;;;;8.40;5.60;;;15.30;99.90;;;;;;6238025;22;20445;-69
2022/10/18 08:53:28;;;;;;;8.40;3.90;;;15.30;99.90;;;;;;6239451;23;20427;-69
2022/10/18 08:56:00;;;;;;;12.30;6.20;;;15.30;99.90;;;;;;6243567;23;20401;-68
2022/10/18 08:58:30;;;;;;;15.13;5.10;;;15.40;99.90;;;;;;6240141;23;20513;-67
2022/10/18 09:01:07;;;;;;;7.70;4.80;;;15.40;99.90;;;;;;6238333;22;20479;-65
2022/10/18 09:03:50;;;;;;;5.40;4.30;;;15.40;99.90;;;;;;6240801;23;20495;-68
2022/10/18 09:06:27;;;;;;;7.13;5.30;;;15.40;99.90;;;;;;6242543;23;20513;-68
2022/10/18 09:09:08;;;;;;;6.23;3.97;;;15.40;99.90;;;;;;6241888;23;20878;-68
2022/10/18 09:11:46;;;;;;;6.27;5.77;;;15.50;99.90;;;;;;6239682;22;20456;-67
2022/10/18 09:14:45;;;;;;;6.00;4.20;;;15.50;99.90;;;;;;6238759;23;20428;-69
2022/10/18 09:17:19;;;;;;;3.37;3.07;;;15.50;99.90;;;;;;6241980;23;21297;-67
2022/10/18 09:19:54;;;;;;;9.77;4.37;;;15.60;99.90;;;;;;6241663;23;20856;-67
2022/10/18 09:22:32;;;;;;;4.57;3.93;;;15.60;99.90;;;;;;6237605;22;20448;-68
2022/10/18 09:25:06;;;;;;;5.00;3.50;;;15.60;99.90;;;;;;6241084;23;20734;-68
2022/10/18 09:27:38;;;;;;;7.67;5.27;;;15.60;99.90;;;;;;6239484;23;20404;-68
2022/10/18 09:30:13;;;;;;;3.77;3.40;;;15.60;99.90;;;;;;6242945;23;20526;-67
2022/10/18 09:32:48;;;;;;;9.73;4.40;;;15.60;99.90;;;;;;6239187;23;20736;-69
2022/10/18 09:35:19;;;;;;;5.77;4.10;;;15.60;99.90;;;;;;6241537;23;20403;-69
2022/10/18 09:37:48;;;;;;;8.73;3.50;;;15.60;99.90;;;;;;6241396;23;20405;-70
2022/10/18 09:40:19;;;;;;;6.50;5.30;;;15.50;99.90;;;;;;6251507;22;20422;-68
2022/10/18 09:42:55;;;;;;;9.83;4.70;;;15.50;99.90;;;;;;6242020;23;20406;-70
2022/10/18 09:45:27;;;;;;;10.50;3.73;;;15.50;99.90;;;;;;6241286;23;20923;-67
2022/10/18 09:48:02;;;;;;;3.13;2.60;;;15.50;99.90;;;;;;6240307;23;20416;-70
2022/10/18 09:50:35;;;;;;;3.73;3.43;;;15.40;99.90;;;;;;6239470;22;20404;-70
2022/10/18 09:53:12;;;;;;;7.73;3.97;;;15.30;99.90;;;;;;6241300;23;20414;-68
2022/10/18 09:55:50;;;;;;;10.00;3.67;;;15.20;99.90;;;;;;6242551;23;20404;-67
2022/10/18 09:58:17;;;;;;;4.47;2.50;;;15.20;99.90;;;;;;6243626;23;20411;-69
2022/10/18 10:00:48;;;;;;;9.80;4.77;;;15.10;99.90;;;;;;6241958;22;20807;-68
2022/10/18 10:03:15;;;;;;;4.13;3.83;;;15.10;99.90;;;;;;6242643;23;20408;-68
2022/10/18 10:05:41;;;;;;;3.50;3.20;;;15.10;99.90;;;;;;6241355;23;20451;-67
2022/10/18 10:08:10;;;;;;;3.63;3.20;;;15.10;99.90;;;;;;6241455;23;20427;-67
2022/10/18 10:10:40;;;;;;;2.27;2.10;;;15.10;99.90;;;;;;6241284;22;20449;-66
2022/10/18 10:13:15;;;;;;;4.27;2.83;;;15.20;99.90;;;;;;6242605;23;20431;-67
2022/10/18 10:15:46;;;;;;;3.73;3.47;;;15.20;99.90;;;;;;6240821;23;20431;-69
2022/10/18 10:18:20;;;;;;;7.50;4.50;;;15.30;99.90;;;;;;6242606;23;20922;-69
2022/10/18 10:20:50;;;;;;;6.97;3.47;;;15.40;99.90;;;;;;6240878;22;20451;-68
2022/10/18 10:23:21;;;;;;;7.40;3.77;;;15.40;99.90;;;;;;6243126;23;20419;-67
2022/10/18 10:25:51;;;;;;;4.20;3.50;;;15.40;99.90;;;;;;6242165;23;20431;-68
2022/10/18 10:28:21;;;;;;;5.53;4.03;;;15.50;99.90;;;;;;6242208;23;20431;-68
2022/10/18 10:30:48;;;;;;;2.83;2.53;;;15.50;99.90;;;;;;6237809;22;20461;-69
2022/10/18 10:33:34;;;;;;;2.53;2.43;;;15.70;99.90;;;;;;6238394;23;20725;-66
2022/10/18 10:36:03;;;;;;;5.20;2.67;;;15.90;99.90;;;;;;6242199;23;20411;-69
2022/10/18 10:38:32;;;;;;;5.03;2.27;;;16.00;99.90;;;;;;6241651;23;20420;-69
2022/10/18 10:40:59;;;;;;;3.97;1.87;;;16.10;99.90;;;;;;6241298;22;20444;-70
2022/10/18 10:43:29;;;;;;;1.93;1.60;;;16.10;99.90;;;;;;6241979;23;20481;-68
2022/10/18 10:46:00;;;;;;;2.07;1.97;;;16.10;99.90;;;;;;6240072;23;21000;-70
2022/10/18 10:48:30;;;;;;;3.37;1.60;;;16.10;99.90;;;;;;6242853;23;20412;-69
2022/10/18 10:51:05;;;;;;;1.33;1.33;;;16.10;99.90;;;;;;6241000;22;20984;-70
2022/10/18 10:53:40;;;;;;;4.57;2.33;;;16.10;99.90;;;;;;6242037;23;20405;-69
2022/10/18 10:56:15;;;;;;;1.53;1.37;;;16.10;99.90;;;;;;6242008;23;20400;-69
2022/10/18 10:58:42;;;;;;;4.90;3.13;;;16.20;99.90;;;;;;6242843;23;20406;-69
2022/10/18 11:01:24;;;;;;;2.37;1.87;;;16.20;99.90;;;;;;6242188;22;20459;-69
2022/10/18 11:03:53;;;;;;;1.97;1.87;;;16.20;99.90;;;;;;6242037;23;20407;-69
2022/10/18 11:06:44;;;;;;;4.20;1.97;;;16.30;99.90;;;;;;6241509;23;20454;-70
2022/10/18 11:09:31;;;;;;;1.37;1.37;;;16.30;99.90;;;;;;6237108;23;20434;-69
2022/10/18 11:12:05;;;;;;;1.87;1.77;;;16.40;99.90;;;;;;6242204;22;20760;-70
2022/10/18 11:14:37;;;;;;;1.50;1.33;;;16.50;99.90;;;;;;6242584;23;20396;-69
2022/10/18 11:17:14;;;;;;;1.47;1.37;;;16.60;99.90;;;;;;6242438;23;20751;-69
2022/10/18 11:19:55;;;;;;;1.00;1.00;;;16.60;99.90;;;;;;6242601;23;20431;-69
2022/10/18 11:22:25;;;;;;;1.47;1.10;;;16.70;99.90;;;;;;6241267;22;20955;-69
2022/10/18 11:24:53;;;;;;;1.53;1.13;;;16.70;99.90;;;;;;6239270;23;20420;-69
2022/10/18 11:27:27;;;;;;;2.17;0.80;;;16.80;99.90;;;;;;6241521;23;20450;-70
2022/10/18 11:30:05;;;;;;;0.53;0.53;;;16.80;99.90;;;;;;6242029;23;20715;-68
2022/10/18 11:32:41;;;;;;;7.00;1.00;;;16.90;99.90;;;;;;6242349;22;20445;-69
2022/10/18 11:35:23;;;;;;;0.53;0.53;;;16.90;99.90;;;;;;6242407;23;20409;-68
2022/10/18 11:38:02;;;;;;;3.23;1.10;;;17.00;99.90;;;;;;6241442;23;20776;-68
2022/10/18 11:40:42;;;;;;;1.90;0.90;;;17.00;99.90;;;;;;6241833;22;20410;-68
2022/10/18 11:43:17;;;;;;;0.50;0.50;;;17.00;99.90;;;;;;6241733;23;20892;-68
2022/10/18 11:45:51;;;;;;;0.70;0.70;;;17.10;99.90;;;;;;6242070;23;20415;-69
2022/10/18 11:48:36;;;;;;;0.73;0.73;;;17.10;99.90;;;;;;6241827;23;20407;-69
2022/10/18 11:51:09;;;;;;;0.50;0.50;;;17.10;99.90;;;;;;6241238;22;20439;-69
2022/10/18 11:53:48;;;;;;;0.70;0.70;;;17.10;99.90;;;;;;6241771;23;20402;-68
2022/10/18 11:56:23;;;;;;;0.83;0.50;;;17.20;99.90;;;;;;6241070;23;20448;-68
2022/10/18 11:59:01;;;;;;;1.73;0.63;;;17.20;99.90;;;;;;6242176;23;20407;-68
2022/10/18 12:01:36;;;;;;;0.90;0.83;;;17.10;99.90;;;;;;6241555;22;20456;-68
2022/10/18 12:04:07;;;;;;;1.80;0.60;;;17.10;99.90;;;;;;6240940;23;20400;-68
2022/10/18 12:06:38;;;;;;;1.53;1.40;;;17.10;99.90;;;;;;6246060;23;20448;-68
2022/10/18 12:09:13;;;;;;;1.00;0.90;;;17.10;99.90;;;;;;6244396;23;20417;-68
2022/10/18 12:11:46;;;;;;;2.37;0.70;;;17.10;99.90;;;;;;6243939;22;20444;-68
2022/10/18 12:14:22;;;;;;;6.13;1.07;;;17.20;99.90;;;;;;6242965;23;20402;-68
2022/10/18 12:16:50;;;;;;;3.00;0.63;;;17.30;99.90;;;;;;6242320;23;20409;-69
2022/10/18 12:19:21;;;;;;;2.40;2.20;;;17.40;99.90;;;;;;6241851;23;20430;-69
2022/10/18 12:21:47;;;;;;;0.70;0.70;;;17.50;99.90;;;;;;6241740;22;20442;-69
2022/10/18 12:24:17;;;;;;;0.57;0.57;;;17.50;99.90;;;;;;6241248;23;20422;-71
2022/10/18 12:26:47;;;;;;;1.63;0.70;;;17.60;99.90;;;;;;6241681;23;20704;-69
2022/10/18 12:29:21;;;;;;;0.90;0.90;;;17.60;99.90;;;;;;6242019;23;20878;-69
2022/10/18 12:31:51;;;;;;;1.13;1.07;;;17.70;99.90;;;;;;6241724;22;20525;-69
2022/10/18 12:34:28;;;;;;;1.20;1.03;;;17.70;99.90;;;;;;6239929;23;20725;-70
2022/10/18 12:37:25;;;;;;;0.87;0.87;;;17.70;99.90;;;;;;6240561;23;20410;-70
2022/10/18 12:39:56;;;;;;;2.43;0.50;;;17.60;99.90;;;;;;6241651;23;20409;-68
2022/10/18 12:42:26;;;;;;;1.70;0.80;;;17.60;99.90;;;;;;6242052;22;20453;-68
2022/10/18 12:45:02;;;;;;;1.00;1.00;;;17.50;99.90;;;;;;6240491;23;21145;-68
2022/10/18 12:47:30;;;;;;;1.13;0.77;;;17.40;99.90;;;;;;6241751;23;20434;-68
2022/10/18 12:49:59;;;;;;;4.10;1.60;;;17.40;99.90;;;;;;6241461;23;20423;-70
2022/10/18 12:52:27;;;;;;;2.10;1.10;;;17.30;99.90;;;;;;6241203;22;20770;-69
2022/10/18 12:55:06;;;;;;;0.83;0.63;;;17.20;99.90;;;;;;6238253;23;20450;-69
2022/10/18 12:58:06;;;;;;;1.40;1.40;;;17.10;99.90;;;;;;6239460;23;20763;-69
2022/10/18 13:00:57;;;;;;;0.90;0.77;;;17.10;99.90;;;;;;6240809;22;20442;-69
2022/10/18 13:03:53;;;;;;;1.13;0.67;;;17.00;99.90;;;;;;6239907;23;20421;-69
2022/10/18 13:06:21;;;;;;;4.40;1.00;;;17.00;99.90;;;;;;6238406;23;20452;-69
2022/10/18 13:08:49;;;;;;;2.07;0.60;;;16.90;99.90;;;;;;6241060;23;20462;-69
2022/10/18 13:11:35;;;;;;;4.10;0.97;;;16.80;99.90;;;;;;6239791;22;20447;-69
2022/10/18 13:14:22;;;;;;;2.93;0.97;;;16.70;99.90;;;;;;6240802;23;20417;-69
2022/10/18 13:16:57;;;;;;;0.83;0.80;;;16.70;99.90;;;;;;6242043;23;20400;-69
2022/10/18 13:19:31;;;;;;;4.03;1.00;;;16.70;99.90;;;;;;6242269;23;20717;-70
2022/10/18 13:22:18;;;;;;;4.17;0.57;;;16.70;99.90;;;;;;6241659;22;20727;-69
2022/10/18 13:24:53;;;;;;;8.53;1.00;;;16.70;99.90;;;;;;6240802;23;20404;-70
2022/10/18 13:27:40;;;;;;;3.30;1.07;;;16.70;99.90;;;;;;6241396;23;20538;-70
2022/10/18 13:30:41;;;;;;;1.30;0.40;;;16.60;99.90;;;;;;6243242;23;20843;-69
2022/10/18 13:33:31;;;;;;;0.90;0.90;;;16.60;99.90;;;;;;6239538;23;20490;-69
2022/10/18 13:36:00;;;;;;;0.67;0.40;;;16.60;99.90;;;;;;6242351;23;20423;-69
2022/10/18 13:39:00;;;;;;;2.57;0.57;;;16.60;99.90;;;;;;6242753;23;20426;-69
2022/10/18 13:41:29;;;;;;;0.40;0.40;;;16.60;99.90;;;;;;6242025;22;20469;-69
2022/10/18 13:44:12;;;;;;;5.30;0.70;;;16.70;99.90;;;;;;6243406;23;20417;-69
2022/10/18 13:47:18;;;;;;;0.70;0.70;;;16.70;99.90;;;;;;6242777;23;20520;-69
2022/10/18 13:50:02;;;;;;;0.77;0.50;;;16.70;99.90;;;;;;6243181;23;20452;-69
2022/10/18 13:52:45;;;;;;;1.60;1.33;;;16.60;99.90;;;;;;6242757;22;20740;-69
2022/10/18 13:55:33;;;;;;;5.60;1.23;;;16.60;99.90;;;;;;6241540;23;20728;-68
2022/10/18 13:58:08;;;;;;;1.70;0.80;;;16.60;99.90;;;;;;6244028;23;20463;-70
2022/10/18 14:00:53;;;;;;;0.40;0.40;;;16.60;99.90;;;;;;6242949;22;20436;-67
2022/10/18 14:03:48;;;;;;;0.63;0.63;;;16.50;99.90;;;;;;6243467;23;20400;-68
2022/10/18 14:06:21;;;;;;;1.17;1.17;;;16.60;99.90;;;;;;6242930;23;20403;-68
2022/10/18 14:08:53;;;;;;;1.07;0.50;;;16.50;99.90;;;;;;6243096;23;20462;-68
2022/10/18 14:11:28;;;;;;;1.07;1.07;;;16.50;99.90;;;;;;6240884;22;20995;-68
2022/10/18 14:14:01;;;;;;;4.47;0.90;;;16.50;99.90;;;;;;6242203;23;20509;-68
2022/10/18 14:16:34;;;;;;;0.60;0.60;;;16.40;99.90;;;;;;6242640;23;20509;-70
2022/10/18 14:19:11;;;;;;;1.80;0.73;;;16.40;99.90;;;;;;6242613;23;20419;-68
2022/10/18 14:21:43;;;;;;;1.13;1.00;;;16.40;99.90;;;;;;6242181;22;20672;-69
2022/10/18 14:24:19;;;;;;;1.13;1.13;;;16.40;99.90;;;;;;6241798;23;20430;-69
2022/10/18 14:26:46;;;;;;;2.10;0.90;;;16.30;99.90;;;;;;6241853;23;20433;-68
2022/10/18 14:29:17;;;;;;;3.90;1.17;;;16.30;99.90;;;;;;6243389;23;20467;-69
2022/10/18 14:31:52;;;;;;;2.33;1.20;;;16.30;99.90;;;;;;6242867;22;20557;-68
2022/10/18 14:34:18;;;;;;;1.23;1.00;;;16.30;99.90;;;;;;6242375;23;20857;-68
2022/10/18 14:36:49;;;;;;;0.93;0.70;;;16.20;99.90;;;;;;6242535;23;20424;-68
2022/10/18 14:39:20;;;;;;;7.20;2.03;;;16.20;99.90;;;;;;6242053;23;20409;-68
2022/10/18 14:41:49;;;;;;;2.57;1.17;;;16.20;99.90;;;;;;6242452;22;20473;-68
2022/10/18 14:44:20;;;;;;;0.67;0.67;;;16.20;99.90;;;;;;6242447;23;20425;-68
2022/10/18 14:46:48;;;;;;;1.37;1.27;;;16.10;99.90;;;;;;6242592;23;20413;-69
2022/10/18 14:49:16;;;;;;;2.67;0.90;;;16.10;99.90;;;;;;6241142;23;20451;-69
2022/10/18 14:51:44;;;;;;;1.17;0.83;;;16.00;99.90;;;;;;6240845;22;20564;-68
2022/10/18 14:54:15;;;;;;;0.63;0.63;;;16.00;99.90;;;;;;6242035;23;20515;-68
2022/10/18 14:56:43;;;;;;;1.63;0.60;;;15.90;99.90;;;;;;6241378;23;20415;-68
2022/10/18 14:59:16;;;;;;;5.80;1.13;;;15.80;99.90;;;;;;6242885;23;20423;-69
2022/10/18 15:01:52;;;;;;;0.87;0.87;;;15.70;99.90;;;;;;6242186;22;20447;-68
2022/10/18 15:04:19;;;;;;;0.40;0.40;;;15.70;99.90;;;;;;6242023;23;20419;-68
2022/10/18 15:06:46;;;;;;;0.43;0.43;;;15.60;99.90;;;;;;6241119;23;20423;-69
2022/10/18 15:09:16;;;;;;;0.90;0.63;;;15.50;99.90;;;;;;6242291;23;20427;-69
2022/10/18 15:11:45;;;;;;;0.87;0.87;;;15.40;99.90;;;;;;6241761;22;20443;-69
2022/10/18 15:14:16;;;;;;;1.07;1.07;;;15.40;99.90;;;;;;6241587;23;20429;-69
2022/10/18 15:16:43;;;;;;;0.67;0.67;;;15.30;99.90;;;;;;6242620;23;20407;-69
2022/10/18 15:19:31;;;;;;;0.60;0.60;;;15.30;99.90;;;;;;6242510;23;20442;-70
2022/10/18 15:21:59;;;;;;;0.47;0.47;;;15.20;99.90;;;;;;6242116;22;20547;-69
2022/10/18 15:24:34;;;;;;;1.20;0.70;;;15.20;99.90;;;;;;6242450;23;20423;-69
2022/10/18 15:27:10;;;;;;;2.00;0.70;;;15.10;99.90;;;;;;6240059;23;20492;-69
2022/10/18 15:29:37;;;;;;;0.50;0.50;;;15.10;99.90;;;;;;6241745;23;20439;-69
2022/10/18 15:32:19;;;;;;;2.37;0.67;;;15.00;99.90;;;;;;6241281;22;20450;-70
2022/10/18 15:34:45;;;;;;;3.10;0.77;;;15.00;99.90;;;;;;6242407;23;20465;-70
2022/10/18 15:37:18;;;;;;;1.17;0.50;;;14.90;99.90;;;;;;6241559;23;20430;-69
2022/10/18 15:39:46;;;;;;;1.27;0.70;;;14.90;99.90;;;;;;6241930;23;20430;-68
2022/10/18 15:42:36;;;;;;;0.40;0.40;;;14.80;99.90;;;;;;6241296;22;20546;-68
2022/10/18 15:45:03;;;;;;;0.83;0.70;;;14.80;99.90;;;;;;6242024;23;20423;-70
2022/10/18 15:47:29;;;;;;;0.50;0.50;;;14.70;99.90;;;;;;6241863;23;20453;-68
2022/10/18 15:49:57;;;;;;;0.77;0.77;;;14.70;99.90;;;;;;6243114;23;20423;-70
2022/10/18 15:52:36;;;;;;;0.43;0.33;;;14.70;99.90;;;;;;6242008;22;20442;-70
2022/10/18 15:55:46;;;;;;;1.33;0.53;;;14.60;99.90;;;;;;6240736;23;20433;-70
2022/10/18 15:58:17;;;;;;;1.57;0.47;;;14.60;99.90;;;;;;6242198;23;20497;-68
2022/10/18 16:00:45;;;;;;;0.70;0.70;;;14.50;99.90;;;;;;6241823;22;20477;-68
2022/10/18 16:03:13;;;;;;;0.60;0.60;;;14.50;99.90;;;;;;6241738;23;20411;-69
2022/10/18 16:05:40;;;;;;;1.10;1.10;;;14.40;99.90;;;;;;6241596;23;20435;-69
2022/10/18 16:08:16;;;;;;;0.60;0.60;;;14.40;99.90;;;;;;6239707;23;20446;-69
2022/10/18 16:10:44;;;;;;;1.70;1.10;;;14.30;99.90;;;;;;6241331;22;20520;-69
2022/10/18 16:13:10;;;;;;;5.60;0.60;;;14.30;99.90;;;;;;6242113;23;20429;-68
2022/10/18 16:15:37;;;;;;;0.33;0.33;;;14.20;99.90;;;;;;6241700;23;20421;-67
2022/10/18 16:18:04;;;;;;;0.40;0.40;;;14.10;99.90;;;;;;6242570;23;20419;-68
2022/10/18 16:20:31;;;;;;;1.03;0.50;;;14.10;99.90;;;;;;6241139;22;20955;-66
2022/10/18 16:22:57;;;;;;;0.60;0.60;;;14.10;99.90;;;;;;6240466;23;20446;-66
2022/10/18 16:25:24;;;;;;;3.40;0.80;;;14.00;99.90;;;;;;6241466;23;20702;-67
2022/10/18 16:27:52;;;;;;;5.20;0.77;;;14.00;99.90;;;;;;6242150;23;20457;-68
2022/10/18 16:30:20;;;;;;;0.53;0.43;;;13.90;99.90;;;;;;6241272;22;20423;-68
2022/10/18 16:32:47;;;;;;;3.03;0.90;;;13.90;99.90;;;;;;6241143;23;20449;-68
2022/10/18 16:35:14;;;;;;;4.23;1.07;;;13.90;99.90;;;;;;6240327;23;20429;-69
2022/10/18 16:37:42;;;;;;;1.60;1.33;;;13.90;99.90;;;;;;6239622;23;20425;-68
2022/10/18 16:40:21;;;;;;;3.83;1.00;;;13.80;99.90;;;;;;6240219;23;20497;-69
2022/10/18 16:42:48;;;;;;;2.83;0.83;;;13.80;99.90;;;;;;6240808;23;20438;-69
2022/10/18 16:45:17;;;;;;;1.70;1.60;;;13.80;99.90;;;;;;6241425;23;20429;-69
2022/10/18 16:47:43;;;;;;;5.63;1.40;;;13.70;99.90;;;;;;6241430;23;20449;-68
2022/10/18 16:50:14;;;;;;;3.33;0.90;;;13.70;99.90;;;;;;6241478;23;20799;-69
2022/10/18 16:52:41;;;;;;;1.77;1.37;;;13.60;99.90;;;;;;6240557;22;20449;-68
2022/10/18 16:55:15;;;;;;;4.40;1.13;;;13.60;99.90;;;;;;6241826;23;20721;-69
2022/10/18 16:57:42;;;;;;;1.80;0.53;;;13.60;99.90;;;;;;6241102;23;20430;-69
2022/10/18 17:00:15;;;;;;;2.53;0.77;;;13.60;99.90;;;;;;6241885;23;20505;-69
2022/10/18 17:02:43;;;;;;;1.63;1.00;;;13.60;99.90;;;;;;6242350;22;20434;-70
2022/10/18 17:05:10;;;;;;;0.83;0.77;;;13.60;99.90;;;;;;6243246;23;20443;-69
2022/10/18 17:07:37;;;;;;;0.93;0.50;;;13.50;99.90;;;;;;6242222;23;20445;-69